Capitol Logistics 266


KCLT
Charlotte/Douglas International Airport
Charlotte, North Carolina, US
KRIV
March Air Reserve Base
Riverside, California, US

Activity Log

Date Flight Route Aircraft Duration
No Flights Yet

Route Details

Aircraft Information
Primary: Boeing 767-300BDSF
Backup: Not Available
Route Data
Distance: 1804nm
Sched. Duration: 4h 45m
Avg. Duration: 0h 00m (-445m)
Times Flown: 0
Recm'd Route: BOBZY4 BNA J46 TUL PNH J78 DRK J134 TRM ARKOE1
Planned Altitude: 34,000ft
Origin Wx: KCLT 270052Z 23011G22KT 10SM FEW065 OVC100 13/07 A2973 RMK AO2 SLP067 T01330067
Dest. Wx: KRIV 270058Z AUTO 08008KT 10SM CLR 22/M09 A3021 RMK AO2 SLP223 T02161090
Notes:

Financial History
Total Freight: 0lbs
Average Load: 0lbs/flt
Fuel Used: 0lbs
Avg. Fuel Used: 0lbs/flt
Fuel Expense: $0
Avg. Fuel Expense: $0
Avg. Fuel Cost: $0/lbs
Total Gross Income: $0
Pilot Pay: $0
Total Expenses: $0
Total Revenue: $0
Average Revenue: $0